sensor_id;sensor_type;location;lat;lon;timestamp;temperature;humidity
54264;DHT22;40178;53.042;6.406;2024-01-15T00:01:54;1.20;99.90
54264;DHT22;40178;53.042;6.406;2024-01-15T00:04:20;1.20;99.90
54264;DHT22;40178;53.042;6.406;2024-01-15T00:06:46;1.20;99.90
54264;DHT22;40178;53.042;6.406;2024-01-15T00:09:11;1.20;99.90
54264;DHT22;40178;53.042;6.406;2024-01-15T00:11:37;1.20;99.90
54264;DHT22;40178;53.042;6.406;2024-01-15T00:14:02;1.30;99.90
54264;DHT22;40178;53.042;6.406;2024-01-15T00:16:28;1.40;99.90
54264;DHT22;40178;53.042;6.406;2024-01-15T00:18:54;1.50;99.90
54264;DHT22;40178;53.042;6.406;2024-01-15T00:21:20;1.50;99.90
54264;DHT22;40178;53.042;6.406;2024-01-15T00:23:45;1.50;99.90
54264;DHT22;40178;53.042;6.406;2024-01-15T00:26:11;1.60;99.90
54264;DHT22;40178;53.042;6.406;2024-01-15T00:28:37;1.60;99.90
54264;DHT22;40178;53.042;6.406;2024-01-15T00:31:04;1.70;99.90
54264;DHT22;40178;53.042;6.406;2024-01-15T00:33:30;1.70;99.90
54264;DHT22;40178;53.042;6.406;2024-01-15T00:35:56;1.70;99.90
54264;DHT22;40178;53.042;6.406;2024-01-15T00:38:21;1.80;99.90
54264;DHT22;40178;53.042;6.406;2024-01-15T00:40:47;1.80;99.90
54264;DHT22;40178;53.042;6.406;2024-01-15T00:43:12;1.80;99.90
54264;DHT22;40178;53.042;6.406;2024-01-15T00:45:38;1.80;99.90
54264;DHT22;40178;53.042;6.406;2024-01-15T00:48:04;1.90;99.90
54264;DHT22;40178;53.042;6.406;2024-01-15T00:50:30;1.90;99.90
54264;DHT22;40178;53.042;6.406;2024-01-15T00:52:55;1.90;99.90
54264;DHT22;40178;53.042;6.406;2024-01-15T00:55:21;2.00;99.90
54264;DHT22;40178;53.042;6.406;2024-01-15T00:57:47;1.90;99.90
54264;DHT22;40178;53.042;6.406;2024-01-15T01:00:13;2.00;99.90
54264;DHT22;40178;53.042;6.406;2024-01-15T01:02:39;1.90;99.90
54264;DHT22;40178;53.042;6.406;2024-01-15T01:05:04;2.00;99.90
54264;DHT22;40178;53.042;6.406;2024-01-15T01:07:30;2.00;99.90
54264;DHT22;40178;53.042;6.406;2024-01-15T01:09:55;2.00;99.90
54264;DHT22;40178;53.042;6.406;2024-01-15T01:12:21;1.90;99.90
54264;DHT22;40178;53.042;6.406;2024-01-15T01:14:47;1.90;99.90
54264;DHT22;40178;53.042;6.406;2024-01-15T01:17:12;1.90;99.90
54264;DHT22;40178;53.042;6.406;2024-01-15T01:19:38;1.90;99.90
54264;DHT22;40178;53.042;6.406;2024-01-15T01:22:04;1.90;99.90
54264;DHT22;40178;53.042;6.406;2024-01-15T01:24:30;1.90;99.90
54264;DHT22;40178;53.042;6.406;2024-01-15T01:26:56;1.90;99.90
54264;DHT22;40178;53.042;6.406;2024-01-15T01:29:21;1.90;99.90
54264;DHT22;40178;53.042;6.406;2024-01-15T01:31:48;1.90;99.90
54264;DHT22;40178;53.042;6.406;2024-01-15T01:34:15;1.90;99.90
54264;DHT22;40178;53.042;6.406;2024-01-15T01:36:41;1.90;99.90
54264;DHT22;40178;53.042;6.406;2024-01-15T01:39:07;1.80;99.90
54264;DHT22;40178;53.042;6.406;2024-01-15T01:41:32;1.80;99.90
54264;DHT22;40178;53.042;6.406;2024-01-15T01:43:58;1.80;99.90
54264;DHT22;40178;53.042;6.406;2024-01-15T01:46:24;1.80;99.90
54264;DHT22;40178;53.042;6.406;2024-01-15T01:48:53;1.80;99.90
54264;DHT22;40178;53.042;6.406;2024-01-15T01:51:20;1.80;99.90
54264;DHT22;40178;53.042;6.406;2024-01-15T01:53:47;1.70;99.90
54264;DHT22;40178;53.042;6.406;2024-01-15T01:56:13;1.70;99.90
54264;DHT22;40178;53.042;6.406;2024-01-15T01:58:39;1.50;99.90
54264;DHT22;40178;53.042;6.406;2024-01-15T02:01:05;1.40;99.90
54264;DHT22;40178;53.042;6.406;2024-01-15T02:03:32;1.40;99.90
54264;DHT22;40178;53.042;6.406;2024-01-15T02:05:59;1.30;99.90
54264;DHT22;40178;53.042;6.406;2024-01-15T02:08:25;1.20;99.90
54264;DHT22;40178;53.042;6.406;2024-01-15T02:10:51;1.20;99.90
54264;DHT22;40178;53.042;6.406;2024-01-15T02:13:18;1.10;99.90
54264;DHT22;40178;53.042;6.406;2024-01-15T02:15:43;1.10;99.90
54264;DHT22;40178;53.042;6.406;2024-01-15T02:18:09;1.10;99.90
54264;DHT22;40178;53.042;6.406;2024-01-15T02:20:35;1.10;99.90
54264;DHT22;40178;53.042;6.406;2024-01-15T02:23:10;1.10;99.90
54264;DHT22;40178;53.042;6.406;2024-01-15T02:25:45;1.20;99.90
54264;DHT22;40178;53.042;6.406;2024-01-15T02:28:13;1.20;99.90
54264;DHT22;40178;53.042;6.406;2024-01-15T02:30:40;1.20;99.90
54264;DHT22;40178;53.042;6.406;2024-01-15T02:33:06;1.30;99.90
54264;DHT22;40178;53.042;6.406;2024-01-15T02:35:32;1.40;99.90
54264;DHT22;40178;53.042;6.406;2024-01-15T02:37:58;1.50;99.90
54264;DHT22;40178;53.042;6.406;2024-01-15T02:40:24;1.50;99.90
54264;DHT22;40178;53.042;6.406;2024-01-15T02:42:50;1.50;99.90
54264;DHT22;40178;53.042;6.406;2024-01-15T02:45:16;1.60;99.90
54264;DHT22;40178;53.042;6.406;2024-01-15T02:47:42;1.60;99.90
54264;DHT22;40178;53.042;6.406;2024-01-15T02:50:07;1.60;99.90
54264;DHT22;40178;53.042;6.406;2024-01-15T02:52:33;1.50;99.90
54264;DHT22;40178;53.042;6.406;2024-01-15T02:54:58;1.50;99.90
54264;DHT22;40178;53.042;6.406;2024-01-15T02:57:24;1.50;99.90
54264;DHT22;40178;53.042;6.406;2024-01-15T02:59:50;1.50;99.90
54264;DHT22;40178;53.042;6.406;2024-01-15T03:02:15;1.40;99.90
54264;DHT22;40178;53.042;6.406;2024-01-15T03:04:44;1.40;99.90
54264;DHT22;40178;53.042;6.406;2024-01-15T03:07:10;1.40;99.90
54264;DHT22;40178;53.042;6.406;2024-01-15T03:09:36;1.40;99.90
54264;DHT22;40178;53.042;6.406;2024-01-15T03:12:01;1.40;99.90
54264;DHT22;40178;53.042;6.406;2024-01-15T03:14:27;1.40;99.90
54264;DHT22;40178;53.042;6.406;2024-01-15T03:16:53;1.40;99.90
54264;DHT22;40178;53.042;6.406;2024-01-15T03:19:19;1.30;99.90
54264;DHT22;40178;53.042;6.406;2024-01-15T03:21:45;1.30;99.90
54264;DHT22;40178;53.042;6.406;2024-01-15T03:24:10;1.40;99.90
54264;DHT22;40178;53.042;6.406;2024-01-15T03:26:36;1.50;99.90
54264;DHT22;40178;53.042;6.406;2024-01-15T03:29:02;1.60;99.90
54264;DHT22;40178;53.042;6.406;2024-01-15T03:31:27;1.50;99.90
54264;DHT22;40178;53.042;6.406;2024-01-15T03:33:53;1.60;99.90
54264;DHT22;40178;53.042;6.406;2024-01-15T03:36:18;1.70;99.90
54264;DHT22;40178;53.042;6.406;2024-01-15T03:38:44;1.70;99.90
54264;DHT22;40178;53.042;6.406;2024-01-15T03:41:10;1.70;99.90
54264;DHT22;40178;53.042;6.406;2024-01-15T03:43:35;1.70;99.90
54264;DHT22;40178;53.042;6.406;2024-01-15T03:46:01;1.70;99.90
54264;DHT22;40178;53.042;6.406;2024-01-15T03:48:27;1.70;99.90
54264;DHT22;40178;53.042;6.406;2024-01-15T03:50:53;1.70;99.90
54264;DHT22;40178;53.042;6.406;2024-01-15T03:53:19;1.60;99.90
54264;DHT22;40178;53.042;6.406;2024-01-15T03:55:44;1.60;99.90
54264;DHT22;40178;53.042;6.406;2024-01-15T03:58:10;1.70;99.90
54264;DHT22;40178;53.042;6.406;2024-01-15T04:00:36;1.80;99.90
54264;DHT22;40178;53.042;6.406;2024-01-15T04:03:01;1.80;99.90
54264;DHT22;40178;53.042;6.406;2024-01-15T04:05:27;1.80;99.90
54264;DHT22;40178;53.042;6.406;2024-01-15T04:07:52;1.80;99.90
54264;DHT22;40178;53.042;6.406;2024-01-15T04:10:18;1.80;99.90
54264;DHT22;40178;53.042;6.406;2024-01-15T04:12:44;1.80;99.90
54264;DHT22;40178;53.042;6.406;2024-01-15T04:15:12;1.80;99.90
54264;DHT22;40178;53.042;6.406;2024-01-15T04:17:38;1.80;99.90
54264;DHT22;40178;53.042;6.406;2024-01-15T04:20:04;1.80;99.90
54264;DHT22;40178;53.042;6.406;2024-01-15T04:22:30;1.90;99.90
54264;DHT22;40178;53.042;6.406;2024-01-15T04:24:55;1.90;99.90
54264;DHT22;40178;53.042;6.406;2024-01-15T04:27:21;1.90;99.90
54264;DHT22;40178;53.042;6.406;2024-01-15T04:29:46;1.90;99.90
54264;DHT22;40178;53.042;6.406;2024-01-15T04:32:12;1.90;99.90
54264;DHT22;40178;53.042;6.406;2024-01-15T04:34:38;1.80;99.90
54264;DHT22;40178;53.042;6.406;2024-01-15T04:37:04;1.80;99.90
54264;DHT22;40178;53.042;6.406;2024-01-15T04:39:29;1.70;99.90
54264;DHT22;40178;53.042;6.406;2024-01-15T04:41:55;1.60;99.90
54264;DHT22;40178;53.042;6.406;2024-01-15T04:44:20;1.50;99.90
54264;DHT22;40178;53.042;6.406;2024-01-15T04:46:46;1.40;99.90
54264;DHT22;40178;53.042;6.406;2024-01-15T04:49:12;1.40;99.90
54264;DHT22;40178;53.042;6.406;2024-01-15T04:51:37;1.40;99.90
54264;DHT22;40178;53.042;6.406;2024-01-15T04:54:03;1.30;99.90
54264;DHT22;40178;53.042;6.406;2024-01-15T04:56:29;1.30;99.90
54264;DHT22;40178;53.042;6.406;2024-01-15T04:58:55;1.20;99.90
54264;DHT22;40178;53.042;6.406;2024-01-15T05:01:20;1.20;99.90
54264;DHT22;40178;53.042;6.406;2024-01-15T05:03:46;1.20;99.90
54264;DHT22;40178;53.042;6.406;2024-01-15T05:06:12;1.10;99.90
54264;DHT22;40178;53.042;6.406;2024-01-15T05:08:37;1.10;99.90
54264;DHT22;40178;53.042;6.406;2024-01-15T05:11:03;1.10;99.90
54264;DHT22;40178;53.042;6.406;2024-01-15T05:13:29;1.10;99.90
54264;DHT22;40178;53.042;6.406;2024-01-15T05:15:54;1.10;99.90
54264;DHT22;40178;53.042;6.406;2024-01-15T05:18:20;1.10;99.90
54264;DHT22;40178;53.042;6.406;2024-01-15T05:20:45;1.20;99.90
54264;DHT22;40178;53.042;6.406;2024-01-15T05:23:11;1.20;99.90
54264;DHT22;40178;53.042;6.406;2024-01-15T05:25:37;1.30;99.90
54264;DHT22;40178;53.042;6.406;2024-01-15T05:28:02;1.40;99.90
54264;DHT22;40178;53.042;6.406;2024-01-15T05:30:28;1.40;99.90
54264;DHT22;40178;53.042;6.406;2024-01-15T05:32:54;1.40;99.90
54264;DHT22;40178;53.042;6.406;2024-01-15T05:35:19;1.30;99.90
54264;DHT22;40178;53.042;6.406;2024-01-15T05:37:45;1.20;99.90
54264;DHT22;40178;53.042;6.406;2024-01-15T05:40:12;1.10;99.90
54264;DHT22;40178;53.042;6.406;2024-01-15T05:42:38;1.00;99.90
54264;DHT22;40178;53.042;6.406;2024-01-15T05:45:05;0.90;99.90
54264;DHT22;40178;53.042;6.406;2024-01-15T05:47:31;0.80;99.90
54264;DHT22;40178;53.042;6.406;2024-01-15T05:49:57;0.80;99.90
54264;DHT22;40178;53.042;6.406;2024-01-15T05:52:23;0.80;99.90
54264;DHT22;40178;53.042;6.406;2024-01-15T05:54:49;0.70;99.90
54264;DHT22;40178;53.042;6.406;2024-01-15T05:57:15;0.60;99.90
54264;DHT22;40178;53.042;6.406;2024-01-15T05:59:41;0.60;99.90
54264;DHT22;40178;53.042;6.406;2024-01-15T06:02:06;0.60;99.90
54264;DHT22;40178;53.042;6.406;2024-01-15T06:04:32;0.60;99.90
54264;DHT22;40178;53.042;6.406;2024-01-15T06:06:57;0.60;99.90
54264;DHT22;40178;53.042;6.406;2024-01-15T06:09:23;0.70;99.90
54264;DHT22;40178;53.042;6.406;2024-01-15T06:11:49;0.70;99.90
54264;DHT22;40178;53.042;6.406;2024-01-15T06:14:14;0.70;99.90
54264;DHT22;40178;53.042;6.406;2024-01-15T06:16:40;0.80;99.90
54264;DHT22;40178;53.042;6.406;2024-01-15T06:19:06;0.80;99.90
54264;DHT22;40178;53.042;6.406;2024-01-15T06:21:31;0.80;99.90
54264;DHT22;40178;53.042;6.406;2024-01-15T06:23:57;0.70;99.90
54264;DHT22;40178;53.042;6.406;2024-01-15T06:26:23;0.70;99.90
54264;DHT22;40178;53.042;6.406;2024-01-15T06:28:48;0.70;99.90
54264;DHT22;40178;53.042;6.406;2024-01-15T06:31:14;0.70;99.90
54264;DHT22;40178;53.042;6.406;2024-01-15T06:33:40;0.70;99.90
54264;DHT22;40178;53.042;6.406;2024-01-15T06:36:06;0.80;99.90
54264;DHT22;40178;53.042;6.406;2024-01-15T06:38:32;0.80;99.90
54264;DHT22;40178;53.042;6.406;2024-01-15T06:40:57;0.90;99.90
54264;DHT22;40178;53.042;6.406;2024-01-15T06:43:23;0.90;99.90
54264;DHT22;40178;53.042;6.406;2024-01-15T06:45:49;0.90;99.90
54264;DHT22;40178;53.042;6.406;2024-01-15T06:48:15;0.90;99.90
54264;DHT22;40178;53.042;6.406;2024-01-15T06:50:42;0.90;99.90
54264;DHT22;40178;53.042;6.406;2024-01-15T06:53:08;0.80;99.90
54264;DHT22;40178;53.042;6.406;2024-01-15T06:55:34;0.80;99.90
54264;DHT22;40178;53.042;6.406;2024-01-15T06:57:59;0.70;99.90
54264;DHT22;40178;53.042;6.406;2024-01-15T07:00:25;0.60;99.90
54264;DHT22;40178;53.042;6.406;2024-01-15T07:02:53;0.60;99.90
54264;DHT22;40178;53.042;6.406;2024-01-15T07:05:20;0.50;99.90
54264;DHT22;40178;53.042;6.406;2024-01-15T07:07:46;0.60;99.90
54264;DHT22;40178;53.042;6.406;2024-01-15T07:10:13;0.50;99.90
54264;DHT22;40178;53.042;6.406;2024-01-15T07:12:41;0.50;99.90
54264;DHT22;40178;53.042;6.406;2024-01-15T07:15:07;0.40;99.90
54264;DHT22;40178;53.042;6.406;2024-01-15T07:17:34;0.50;99.90
54264;DHT22;40178;53.042;6.406;2024-01-15T07:19:59;0.40;99.90
54264;DHT22;40178;53.042;6.406;2024-01-15T07:22:25;0.40;99.90
54264;DHT22;40178;53.042;6.406;2024-01-15T07:24:50;0.40;99.90
54264;DHT22;40178;53.042;6.406;2024-01-15T07:27:16;0.40;99.90
54264;DHT22;40178;53.042;6.406;2024-01-15T07:29:41;0.40;99.90
54264;DHT22;40178;53.042;6.406;2024-01-15T07:32:11;0.40;99.90
54264;DHT22;40178;53.042;6.406;2024-01-15T07:34:37;0.40;99.90
54264;DHT22;40178;53.042;6.406;2024-01-15T07:37:03;0.40;99.90
54264;DHT22;40178;53.042;6.406;2024-01-15T07:39:29;0.50;99.90
54264;DHT22;40178;53.042;6.406;2024-01-15T07:41:56;0.50;99.90
54264;DHT22;40178;53.042;6.406;2024-01-15T07:44:21;0.70;99.90
54264;DHT22;40178;53.042;6.406;2024-01-15T07:46:47;0.70;99.90
54264;DHT22;40178;53.042;6.406;2024-01-15T07:49:13;0.70;99.90
54264;DHT22;40178;53.042;6.406;2024-01-15T07:51:39;0.80;99.90
54264;DHT22;40178;53.042;6.406;2024-01-15T07:54:06;0.80;99.90
54264;DHT22;40178;53.042;6.406;2024-01-15T07:56:32;0.90;99.90
54264;DHT22;40178;53.042;6.406;2024-01-15T07:58:57;0.90;99.90
54264;DHT22;40178;53.042;6.406;2024-01-15T08:01:23;1.00;99.90
54264;DHT22;40178;53.042;6.406;2024-01-15T08:03:48;1.00;99.90
54264;DHT22;40178;53.042;6.406;2024-01-15T08:06:14;1.00;99.90
54264;DHT22;40178;53.042;6.406;2024-01-15T08:08:40;1.00;99.90
54264;DHT22;40178;53.042;6.406;2024-01-15T08:11:05;0.90;99.90
54264;DHT22;40178;53.042;6.406;2024-01-15T08:13:31;0.90;99.90
54264;DHT22;40178;53.042;6.406;2024-01-15T08:15:57;0.90;99.90
54264;DHT22;40178;53.042;6.406;2024-01-15T08:18:22;0.90;99.90
54264;DHT22;40178;53.042;6.406;2024-01-15T08:20:48;0.80;99.90
54264;DHT22;40178;53.042;6.406;2024-01-15T08:23:14;0.80;99.90
54264;DHT22;40178;53.042;6.406;2024-01-15T08:25:40;0.80;99.90
54264;DHT22;40178;53.042;6.406;2024-01-15T08:28:05;0.80;99.90
54264;DHT22;40178;53.042;6.406;2024-01-15T08:30:31;0.80;99.90
54264;DHT22;40178;53.042;6.406;2024-01-15T08:32:57;0.80;99.90
54264;DHT22;40178;53.042;6.406;2024-01-15T08:35:22;0.80;99.90
54264;DHT22;40178;53.042;6.406;2024-01-15T08:37:52;0.80;99.90
54264;DHT22;40178;53.042;6.406;2024-01-15T08:40:18;0.90;99.90
54264;DHT22;40178;53.042;6.406;2024-01-15T08:42:44;0.90;99.90
54264;DHT22;40178;53.042;6.406;2024-01-15T08:45:11;0.90;99.90
54264;DHT22;40178;53.042;6.406;2024-01-15T08:47:37;1.00;99.90
54264;DHT22;40178;53.042;6.406;2024-01-15T08:50:02;1.10;99.90
54264;DHT22;40178;53.042;6.406;2024-01-15T08:52:29;1.20;99.90
54264;DHT22;40178;53.042;6.406;2024-01-15T08:54:56;1.30;99.90
54264;DHT22;40178;53.042;6.406;2024-01-15T08:57:22;1.50;99.90
54264;DHT22;40178;53.042;6.406;2024-01-15T08:59:47;1.70;99.90
54264;DHT22;40178;53.042;6.406;2024-01-15T09:02:13;1.70;99.90
54264;DHT22;40178;53.042;6.406;2024-01-15T09:04:39;1.80;99.90
54264;DHT22;40178;53.042;6.406;2024-01-15T09:07:05;1.70;99.90
54264;DHT22;40178;53.042;6.406;2024-01-15T09:09:30;1.60;99.90
54264;DHT22;40178;53.042;6.406;2024-01-15T09:11:56;1.50;99.90
54264;DHT22;40178;53.042;6.406;2024-01-15T09:14:22;1.40;99.90
54264;DHT22;40178;53.042;6.406;2024-01-15T09:16:49;1.30;99.90
54264;DHT22;40178;53.042;6.406;2024-01-15T09:19:15;1.30;99.90
54264;DHT22;40178;53.042;6.406;2024-01-15T09:21:40;1.30;99.90
54264;DHT22;40178;53.042;6.406;2024-01-15T09:24:06;1.40;99.90
54264;DHT22;40178;53.042;6.406;2024-01-15T09:26:32;1.40;99.90
54264;DHT22;40178;53.042;6.406;2024-01-15T09:28:57;1.40;99.90
54264;DHT22;40178;53.042;6.406;2024-01-15T09:31:23;1.50;99.90
54264;DHT22;40178;53.042;6.406;2024-01-15T09:33:49;1.50;99.90
54264;DHT22;40178;53.042;6.406;2024-01-15T09:36:18;1.70;99.90
54264;DHT22;40178;53.042;6.406;2024-01-15T09:38:43;1.80;99.90
54264;DHT22;40178;53.042;6.406;2024-01-15T09:41:09;1.90;99.90
54264;DHT22;40178;53.042;6.406;2024-01-15T09:43:36;2.00;99.90
54264;DHT22;40178;53.042;6.406;2024-01-15T09:46:03;2.00;99.90
54264;DHT22;40178;53.042;6.406;2024-01-15T09:48:29;1.90;99.90
54264;DHT22;40178;53.042;6.406;2024-01-15T09:50:57;1.90;99.90
54264;DHT22;40178;53.042;6.406;2024-01-15T09:53:25;1.80;99.90
54264;DHT22;40178;53.042;6.406;2024-01-15T09:55:52;1.80;99.90
54264;DHT22;40178;53.042;6.406;2024-01-15T09:58:18;1.80;99.90
54264;DHT22;40178;53.042;6.406;2024-01-15T10:00:44;1.80;99.90
54264;DHT22;40178;53.042;6.406;2024-01-15T10:03:10;1.80;99.90
54264;DHT22;40178;53.042;6.406;2024-01-15T10:05:37;1.80;99.90
54264;DHT22;40178;53.042;6.406;2024-01-15T10:08:04;1.80;99.90
54264;DHT22;40178;53.042;6.406;2024-01-15T10:10:30;1.90;99.90
54264;DHT22;40178;53.042;6.406;2024-01-15T10:12:58;2.00;99.90
54264;DHT22;40178;53.042;6.406;2024-01-15T10:15:25;2.00;99.90
54264;DHT22;40178;53.042;6.406;2024-01-15T10:17:51;2.00;99.90
54264;DHT22;40178;53.042;6.406;2024-01-15T10:20:17;2.00;99.90
54264;DHT22;40178;53.042;6.406;2024-01-15T10:22:45;2.20;99.90
54264;DHT22;40178;53.042;6.406;2024-01-15T10:25:12;2.30;99.90
54264;DHT22;40178;53.042;6.406;2024-01-15T10:27:39;2.50;99.90
54264;DHT22;40178;53.042;6.406;2024-01-15T10:30:07;2.50;99.90
54264;DHT22;40178;53.042;6.406;2024-01-15T10:32:33;2.50;99.90
54264;DHT22;40178;53.042;6.406;2024-01-15T10:34:58;2.40;99.90
54264;DHT22;40178;53.042;6.406;2024-01-15T10:37:25;2.30;99.90
54264;DHT22;40178;53.042;6.406;2024-01-15T10:39:52;2.30;99.90
54264;DHT22;40178;53.042;6.406;2024-01-15T10:42:18;2.30;99.90
54264;DHT22;40178;53.042;6.406;2024-01-15T10:44:44;2.40;99.90
54264;DHT22;40178;53.042;6.406;2024-01-15T10:47:12;2.40;99.90
54264;DHT22;40178;53.042;6.406;2024-01-15T10:49:38;2.30;99.90
54264;DHT22;40178;53.042;6.406;2024-01-15T10:52:05;2.10;99.90
54264;DHT22;40178;53.042;6.406;2024-01-15T10:54:31;2.10;99.90
54264;DHT22;40178;53.042;6.406;2024-01-15T10:56:57;2.00;99.90
54264;DHT22;40178;53.042;6.406;2024-01-15T10:59:23;2.00;99.90
54264;DHT22;40178;53.042;6.406;2024-01-15T11:01:50;2.00;99.90
54264;DHT22;40178;53.042;6.406;2024-01-15T11:04:19;2.10;99.90
54264;DHT22;40178;53.042;6.406;2024-01-15T11:06:46;2.10;99.90
54264;DHT22;40178;53.042;6.406;2024-01-15T11:09:13;2.10;99.90
54264;DHT22;40178;53.042;6.406;2024-01-15T11:11:44;2.10;99.90
54264;DHT22;40178;53.042;6.406;2024-01-15T11:14:10;2.00;99.90
54264;DHT22;40178;53.042;6.406;2024-01-15T11:16:55;2.00;99.90
54264;DHT22;40178;53.042;6.406;2024-01-15T11:19:22;2.00;99.90
54264;DHT22;40178;53.042;6.406;2024-01-15T11:21:47;2.00;99.90
54264;DHT22;40178;53.042;6.406;2024-01-15T11:24:34;2.00;99.90
54264;DHT22;40178;53.042;6.406;2024-01-15T11:27:00;2.10;99.90
54264;DHT22;40178;53.042;6.406;2024-01-15T11:34:21;2.00;99.90
54264;DHT22;40178;53.042;6.406;2024-01-15T11:41:54;1.90;99.90
54264;DHT22;40178;53.042;6.406;2024-01-15T11:44:21;1.90;99.90
54264;DHT22;40178;53.042;6.406;2024-01-15T11:47:09;2.00;99.90
54264;DHT22;40178;53.042;6.406;2024-01-15T11:52:20;1.80;99.90
54264;DHT22;40178;53.042;6.406;2024-01-15T11:55:19;1.60;99.90
54264;DHT22;40178;53.042;6.406;2024-01-15T11:57:53;1.40;99.90
54264;DHT22;40178;53.042;6.406;2024-01-15T12:00:21;1.20;99.90
54264;DHT22;40178;53.042;6.406;2024-01-15T12:02:48;1.20;99.90
54264;DHT22;40178;53.042;6.406;2024-01-15T12:05:16;1.10;99.90
54264;DHT22;40178;53.042;6.406;2024-01-15T12:07:47;1.10;99.90
54264;DHT22;40178;53.042;6.406;2024-01-15T12:10:20;1.20;99.90
54264;DHT22;40178;53.042;6.406;2024-01-15T12:12:54;1.20;99.90
54264;DHT22;40178;53.042;6.406;2024-01-15T12:15:22;1.20;99.90
54264;DHT22;40178;53.042;6.406;2024-01-15T12:17:49;1.20;99.90
54264;DHT22;40178;53.042;6.406;2024-01-15T12:20:15;1.30;99.90
54264;DHT22;40178;53.042;6.406;2024-01-15T12:22:42;1.40;99.90
54264;DHT22;40178;53.042;6.406;2024-01-15T12:25:07;1.40;99.90
54264;DHT22;40178;53.042;6.406;2024-01-15T12:27:33;1.40;99.90
54264;DHT22;40178;53.042;6.406;2024-01-15T12:29:59;1.50;99.90
54264;DHT22;40178;53.042;6.406;2024-01-15T12:32:25;1.60;99.90
54264;DHT22;40178;53.042;6.406;2024-01-15T12:34:51;1.60;99.90
54264;DHT22;40178;53.042;6.406;2024-01-15T12:37:19;1.70;99.90
54264;DHT22;40178;53.042;6.406;2024-01-15T12:39:46;1.80;99.90
54264;DHT22;40178;53.042;6.406;2024-01-15T12:42:11;1.80;99.90
54264;DHT22;40178;53.042;6.406;2024-01-15T12:44:38;1.90;99.90
54264;DHT22;40178;53.042;6.406;2024-01-15T12:47:05;1.90;99.90
54264;DHT22;40178;53.042;6.406;2024-01-15T12:49:30;2.10;99.90
54264;DHT22;40178;53.042;6.406;2024-01-15T12:51:57;2.10;99.90
54264;DHT22;40178;53.042;6.406;2024-01-15T12:54:23;2.10;99.90
54264;DHT22;40178;53.042;6.406;2024-01-15T12:56:50;2.00;99.90
54264;DHT22;40178;53.042;6.406;2024-01-15T12:59:15;1.90;99.90
54264;DHT22;40178;53.042;6.406;2024-01-15T13:01:41;1.80;99.90
54264;DHT22;40178;53.042;6.406;2024-01-15T13:04:07;1.80;99.90
54264;DHT22;40178;53.042;6.406;2024-01-15T13:06:36;1.80;99.90
54264;DHT22;40178;53.042;6.406;2024-01-15T13:09:03;1.90;99.90
54264;DHT22;40178;53.042;6.406;2024-01-15T13:11:31;2.00;99.90
54264;DHT22;40178;53.042;6.406;2024-01-15T13:13:57;2.00;99.90
54264;DHT22;40178;53.042;6.406;2024-01-15T13:16:23;2.00;99.90
54264;DHT22;40178;53.042;6.406;2024-01-15T13:18:48;1.80;99.90
54264;DHT22;40178;53.042;6.406;2024-01-15T13:21:15;1.60;99.90
54264;DHT22;40178;53.042;6.406;2024-01-15T13:23:41;1.50;99.90
54264;DHT22;40178;53.042;6.406;2024-01-15T13:26:06;1.60;99.90
54264;DHT22;40178;53.042;6.406;2024-01-15T13:28:32;1.60;99.90
54264;DHT22;40178;53.042;6.406;2024-01-15T13:30:59;1.50;99.90
54264;DHT22;40178;53.042;6.406;2024-01-15T13:33:25;1.50;99.90
54264;DHT22;40178;53.042;6.406;2024-01-15T13:35:51;1.40;99.90
54264;DHT22;40178;53.042;6.406;2024-01-15T13:38:16;1.40;99.90
54264;DHT22;40178;53.042;6.406;2024-01-15T13:40:42;1.40;99.90
54264;DHT22;40178;53.042;6.406;2024-01-15T13:43:11;1.40;99.90
54264;DHT22;40178;53.042;6.406;2024-01-15T13:45:36;1.40;99.90
54264;DHT22;40178;53.042;6.406;2024-01-15T13:48:03;1.40;99.90
54264;DHT22;40178;53.042;6.406;2024-01-15T13:50:31;1.50;99.90
54264;DHT22;40178;53.042;6.406;2024-01-15T13:52:57;1.60;99.90
54264;DHT22;40178;53.042;6.406;2024-01-15T13:55:22;1.60;99.90
54264;DHT22;40178;53.042;6.406;2024-01-15T13:57:48;1.60;99.90
54264;DHT22;40178;53.042;6.406;2024-01-15T14:00:14;1.70;99.90
54264;DHT22;40178;53.042;6.406;2024-01-15T14:02:44;1.70;99.90
54264;DHT22;40178;53.042;6.406;2024-01-15T14:05:10;1.70;99.90
54264;DHT22;40178;53.042;6.406;2024-01-15T14:07:38;1.80;99.90
54264;DHT22;40178;53.042;6.406;2024-01-15T14:10:05;1.80;99.90
54264;DHT22;40178;53.042;6.406;2024-01-15T14:12:31;1.80;99.90
54264;DHT22;40178;53.042;6.406;2024-01-15T14:14:57;1.80;99.90
54264;DHT22;40178;53.042;6.406;2024-01-15T14:17:22;1.80;99.90
54264;DHT22;40178;53.042;6.406;2024-01-15T14:19:48;1.70;99.90
54264;DHT22;40178;53.042;6.406;2024-01-15T14:22:14;1.70;99.90
54264;DHT22;40178;53.042;6.406;2024-01-15T14:24:39;1.70;99.90
54264;DHT22;40178;53.042;6.406;2024-01-15T14:27:05;1.60;99.90
54264;DHT22;40178;53.042;6.406;2024-01-15T14:29:32;1.60;99.90
54264;DHT22;40178;53.042;6.406;2024-01-15T14:31:58;1.50;99.90
54264;DHT22;40178;53.042;6.406;2024-01-15T14:34:25;1.50;99.90
54264;DHT22;40178;53.042;6.406;2024-01-15T14:36:51;1.40;99.90
54264;DHT22;40178;53.042;6.406;2024-01-15T14:39:19;1.50;99.90
54264;DHT22;40178;53.042;6.406;2024-01-15T14:41:45;1.50;99.90
54264;DHT22;40178;53.042;6.406;2024-01-15T14:44:12;1.50;99.90
54264;DHT22;40178;53.042;6.406;2024-01-15T14:46:38;1.50;99.90
54264;DHT22;40178;53.042;6.406;2024-01-15T14:49:04;1.50;99.90
54264;DHT22;40178;53.042;6.406;2024-01-15T14:51:30;1.50;99.90
54264;DHT22;40178;53.042;6.406;2024-01-15T14:53:56;1.50;99.90
54264;DHT22;40178;53.042;6.406;2024-01-15T14:56:22;1.60;99.90
54264;DHT22;40178;53.042;6.406;2024-01-15T14:58:48;1.50;99.90
54264;DHT22;40178;53.042;6.406;2024-01-15T15:01:13;1.60;99.90
54264;DHT22;40178;53.042;6.406;2024-01-15T15:03:39;1.60;99.90
54264;DHT22;40178;53.042;6.406;2024-01-15T15:06:05;1.50;99.90
54264;DHT22;40178;53.042;6.406;2024-01-15T15:08:33;1.30;99.90
54264;DHT22;40178;53.042;6.406;2024-01-15T15:10:59;1.20;99.90
54264;DHT22;40178;53.042;6.406;2024-01-15T15:13:25;1.10;99.90
54264;DHT22;40178;53.042;6.406;2024-01-15T15:15:51;1.10;99.90
54264;DHT22;40178;53.042;6.406;2024-01-15T15:18:17;1.00;99.90
54264;DHT22;40178;53.042;6.406;2024-01-15T15:20:43;0.90;99.90
54264;DHT22;40178;53.042;6.406;2024-01-15T15:23:08;0.90;99.90
54264;DHT22;40178;53.042;6.406;2024-01-15T15:25:36;0.80;99.90
54264;DHT22;40178;53.042;6.406;2024-01-15T15:28:02;0.90;99.90
54264;DHT22;40178;53.042;6.406;2024-01-15T15:30:30;0.90;99.90
54264;DHT22;40178;53.042;6.406;2024-01-15T15:32:56;1.00;99.90
54264;DHT22;40178;53.042;6.406;2024-01-15T15:35:22;1.00;99.90
54264;DHT22;40178;53.042;6.406;2024-01-15T15:37:47;1.00;99.90
54264;DHT22;40178;53.042;6.406;2024-01-15T15:40:13;1.00;99.90
54264;DHT22;40178;53.042;6.406;2024-01-15T15:42:39;1.00;99.90
54264;DHT22;40178;53.042;6.406;2024-01-15T15:45:04;1.90;99.90
54264;DHT22;40178;53.042;6.406;2024-01-15T15:47:31;1.00;99.90
54264;DHT22;40178;53.042;6.406;2024-01-15T15:49:56;1.00;99.90
54264;DHT22;40178;53.042;6.406;2024-01-15T15:52:22;1.00;99.90